createdAt,value
2022-07-30T00:02:20.715Z,77.93
2022-07-30T00:04:48.742Z,78.47
2022-07-30T00:07:16.588Z,78.52
2022-07-30T00:09:44.417Z,78.17
2022-07-30T00:12:13.591Z,78.81
2022-07-30T00:14:41.444Z,78.51
2022-07-30T00:17:09.547Z,79.17
2022-07-30T00:19:37.353Z,79.28
2022-07-30T00:22:05.194Z,78.05
2022-07-30T00:24:32.965Z,78.71
2022-07-30T00:27:01.084Z,78.11
2022-07-30T00:29:30.845Z,77.74
2022-07-30T00:31:58.663Z,78.16
2022-07-30T00:34:26.814Z,78.13
2022-07-30T00:36:54.652Z,78.94
2022-07-30T00:39:22.462Z,78.82
2022-07-30T00:41:59.207Z,79.36
2022-07-30T00:44:27.120Z,81.29
2022-07-30T00:46:56.776Z,81.47
2022-07-30T00:49:25.170Z,81.49
2022-07-30T00:51:53.355Z,81.25
2022-07-30T00:54:22.128Z,80.46
2022-07-30T00:56:50.194Z,80.42
2022-07-30T00:59:18.154Z,80.85
2022-07-30T01:01:46.103Z,80.70
2022-07-30T01:04:15.269Z,80.17
2022-07-30T01:06:43.044Z,80.36
2022-07-30T01:09:11.004Z,79.93
2022-07-30T01:11:41.092Z,79.50
2022-07-30T01:14:10.232Z,79.23
2022-07-30T01:16:41.557Z,79.24
2022-07-30T01:19:39.250Z,79.61
2022-07-30T01:22:13.458Z,79.33
2022-07-30T01:24:44.383Z,79.54
2022-07-30T01:27:19.730Z,79.69
2022-07-30T01:29:48.881Z,79.71
2022-07-30T01:32:19.697Z,79.92
2022-07-30T01:34:48.529Z,80.25
2022-07-30T01:37:17.844Z,80.68
2022-07-30T01:39:49.529Z,80.75
2022-07-30T01:42:20.329Z,81.05
2022-07-30T01:44:50.072Z,81.53
2022-07-30T01:47:19.823Z,81.22
2022-07-30T01:49:49.897Z,81.65
2022-07-30T01:52:19.696Z,81.92
2022-07-30T01:54:51.141Z,81.89
2022-07-30T01:57:22.068Z,81.93
2022-07-30T01:59:53.230Z,82.52
2022-07-30T02:02:21.230Z,82.59
2022-07-30T02:04:49.236Z,82.53
2022-07-30T02:07:24.002Z,81.65
2022-07-30T02:09:56.561Z,81.55
2022-07-30T02:12:29.809Z,81.47
2022-07-30T02:15:14.934Z,81.95
2022-07-30T02:17:46.612Z,81.96
2022-07-30T02:20:17.547Z,82.54
2022-07-30T02:22:48.159Z,82.53
2022-07-30T02:25:19.558Z,82.71
2022-07-30T02:27:53.771Z,82.74
2022-07-30T02:30:26.823Z,82.69
2022-07-30T02:33:00.316Z,82.92
2022-07-30T02:35:30.623Z,83.14
2022-07-30T02:38:00.845Z,82.82
2022-07-30T02:40:29.823Z,82.23
2022-07-30T02:43:01.313Z,82.91
2022-07-30T02:45:30.148Z,82.50
2022-07-30T02:48:01.862Z,82.55
2022-07-30T02:50:31.690Z,82.37
2022-07-30T02:53:01.615Z,82.41
2022-07-30T02:55:33.454Z,82.41
2022-07-30T02:58:05.153Z,83.30
2022-07-30T03:00:33.862Z,83.38
2022-07-30T03:03:03.376Z,83.16
2022-07-30T03:05:31.786Z,81.90
2022-07-30T03:08:01.209Z,82.25
2022-07-30T03:10:30.204Z,82.74
2022-07-30T03:12:59.818Z,82.67
2022-07-30T03:15:30.590Z,81.86
2022-07-30T03:18:00.203Z,82.31
2022-07-30T03:20:30.958Z,81.97
2022-07-30T03:23:02.337Z,83.56
2022-07-30T03:25:32.038Z,83.54
2022-07-30T03:28:03.766Z,83.78
2022-07-30T03:30:35.578Z,83.73
2022-07-30T03:33:03.810Z,84.49
2022-07-30T03:35:32.417Z,84.40
2022-07-30T03:38:01.399Z,83.75
2022-07-30T03:40:30.373Z,83.31
2022-07-30T03:42:58.947Z,83.32
2022-07-30T03:45:27.383Z,83.99
2022-07-30T03:47:57.377Z,84.74
2022-07-30T03:50:25.347Z,84.61
2022-07-30T03:52:53.628Z,84.34
2022-07-30T03:55:22.916Z,84.07
2022-07-30T03:57:51.025Z,83.53
2022-07-30T04:00:18.946Z,83.63
2022-07-30T04:02:48.146Z,84.15
2022-07-30T04:05:17.983Z,85.31
2022-07-30T04:07:45.741Z,85.92
2022-07-30T04:10:15.659Z,86.04
2022-07-30T04:12:43.935Z,85.91
2022-07-30T04:16:31.752Z,85.37
2022-07-30T04:18:04.428Z,84.94
2022-07-30T04:20:40.807Z,84.67
2022-07-30T04:23:10.444Z,85.06
2022-07-30T04:25:38.870Z,84.52
2022-07-30T04:28:07.265Z,84.53
2022-07-30T04:30:35.318Z,83.71
2022-07-30T04:33:04.248Z,84.32
2022-07-30T04:35:51.368Z,84.64
2022-07-30T04:38:20.583Z,84.69
2022-07-30T04:40:48.932Z,84.96
2022-07-30T04:43:16.803Z,85.38
2022-07-30T04:45:44.758Z,85.62
2022-07-30T04:48:12.623Z,84.57
2022-07-30T04:50:44.357Z,84.90
2022-07-30T04:53:12.556Z,84.74
2022-07-30T04:55:43.407Z,84.00
2022-07-30T04:58:13.221Z,83.86
2022-07-30T05:00:41.723Z,82.78
2022-07-30T05:03:12.769Z,82.57
2022-07-30T05:05:43.446Z,81.98
2022-07-30T05:08:13.513Z,81.20
2022-07-30T05:10:41.657Z,81.54
2022-07-30T05:13:12.305Z,80.83
2022-07-30T05:15:41.416Z,80.61
2022-07-30T05:18:09.607Z,80.01
2022-07-30T05:20:37.727Z,79.97
2022-07-30T05:23:08.108Z,79.89
2022-07-30T05:25:35.879Z,79.33
2022-07-30T05:28:03.697Z,78.69
2022-07-30T05:30:31.587Z,78.11
2022-07-30T05:32:59.461Z,78.30
2022-07-30T05:35:31.275Z,77.29
2022-07-30T05:38:00.101Z,76.25
2022-07-30T05:40:29.287Z,75.39
2022-07-30T05:42:57.215Z,75.91
2022-07-30T05:45:25.011Z,76.11
2022-07-30T05:47:52.766Z,75.72
2022-07-30T05:50:20.926Z,75.26
2022-07-30T05:52:48.957Z,75.34
2022-07-30T05:55:16.875Z,74.89
2022-07-30T05:57:45.985Z,74.94
2022-07-30T06:00:14.685Z,74.03
2022-07-30T06:02:42.511Z,73.60
2022-07-30T06:05:10.473Z,73.42
2022-07-30T06:07:38.195Z,73.56
2022-07-30T06:10:07.021Z,72.73
2022-07-30T06:12:34.856Z,72.44
2022-07-30T06:15:05.197Z,72.03
2022-07-30T06:17:41.279Z,71.29
2022-07-30T06:20:10.679Z,71.49
2022-07-30T06:22:38.534Z,70.68
2022-07-30T06:25:07.280Z,71.18
2022-07-30T06:27:39.593Z,71.38
2022-07-30T06:30:11.844Z,70.97
2022-07-30T06:32:39.626Z,71.09
2022-07-30T06:35:08.519Z,70.95
2022-07-30T06:38:06.223Z,70.88
2022-07-30T06:40:24.160Z,69.82
2022-07-30T06:42:51.912Z,68.66
2022-07-30T06:45:21.130Z,69.38
2022-07-30T06:47:49.046Z,69.00
2022-07-30T06:50:18.934Z,68.75
2022-07-30T06:52:47.200Z,67.94
2022-07-30T06:55:15.052Z,67.96
2022-07-30T06:57:42.858Z,67.96
2022-07-30T07:00:11.631Z,68.58
2022-07-30T07:02:42.574Z,68.13
2022-07-30T07:05:10.857Z,67.16
2022-07-30T07:07:43.227Z,67.66
2022-07-30T07:10:14.188Z,66.15
2022-07-30T07:12:41.946Z,66.35
2022-07-30T07:15:10.770Z,65.53
2022-07-30T07:17:40.383Z,65.52
2022-07-30T07:20:08.962Z,65.18
2022-07-30T07:22:36.752Z,64.44
2022-07-30T07:25:05.054Z,64.65
2022-07-30T07:27:32.831Z,63.25
2022-07-30T07:30:05.567Z,62.84
2022-07-30T07:32:34.430Z,61.36
2022-07-30T07:35:03.648Z,61.54
2022-07-30T07:37:31.487Z,61.38
2022-07-30T07:39:59.313Z,60.38
2022-07-30T07:42:27.108Z,60.12
2022-07-30T07:44:54.991Z,59.54
2022-07-30T07:47:22.767Z,58.99
2022-07-30T07:49:50.551Z,59.24
2022-07-30T07:52:19.893Z,58.27
2022-07-30T07:54:47.739Z,58.19
2022-07-30T07:57:15.595Z,57.82
2022-07-30T07:59:44.566Z,57.87
2022-07-30T08:02:12.575Z,56.84
2022-07-30T08:04:40.790Z,56.12
2022-07-30T08:07:08.598Z,55.34
2022-07-30T08:09:40.589Z,54.60
2022-07-30T08:12:12.825Z,53.42
2022-07-30T08:14:40.900Z,53.47
2022-07-30T08:17:09.570Z,54.48
2022-07-30T08:19:37.538Z,54.44
2022-07-30T08:22:05.365Z,54.54
2022-07-30T08:24:33.605Z,53.54
2022-07-30T08:27:03.487Z,54.29
2022-07-30T08:29:31.656Z,52.26
2022-07-30T08:31:59.729Z,52.39
2022-07-30T08:34:28.904Z,49.19
2022-07-30T08:36:56.863Z,49.03
2022-07-30T08:39:24.672Z,48.05
2022-07-30T08:41:52.688Z,48.36
2022-07-30T08:44:22.619Z,48.83
2022-07-30T08:46:53.057Z,49.94
2022-07-30T08:49:25.060Z,48.89
2022-07-30T08:51:53.252Z,50.17
2022-07-30T08:54:21.174Z,49.55
2022-07-30T08:56:50.386Z,50.14
2022-07-30T08:59:19.058Z,48.98
2022-07-30T09:01:49.778Z,49.32
2022-07-30T09:04:17.550Z,50.25
2022-07-30T09:06:45.838Z,50.41
2022-07-30T09:09:15.119Z,50.03
2022-07-30T09:11:43.106Z,48.95
2022-07-30T09:14:13.539Z,48.22
2022-07-30T09:16:42.152Z,48.51
2022-07-30T09:19:16.795Z,48.86
2022-07-30T09:21:56.730Z,48.56
2022-07-30T09:24:24.586Z,48.59
2022-07-30T09:26:58.340Z,49.12
2022-07-30T09:29:28.308Z,49.38
2022-07-30T09:31:57.689Z,47.96
2022-07-30T09:34:28.821Z,46.73
2022-07-30T09:36:58.170Z,46.70
2022-07-30T09:39:30.133Z,45.21
2022-07-30T09:41:58.316Z,46.06
2022-07-30T09:44:28.206Z,45.86
2022-07-30T09:46:56.570Z,44.08
2022-07-30T09:49:26.065Z,45.57
2022-07-30T09:51:57.512Z,42.88
2022-07-30T09:54:26.584Z,43.01
2022-07-30T09:57:22.747Z,43.90
2022-07-30T09:59:54.588Z,42.68
2022-07-30T10:02:29.604Z,42.30
2022-07-30T10:05:14.080Z,42.46
2022-07-30T10:07:52.069Z,42.07
2022-07-30T10:10:25.192Z,41.49
2022-07-30T10:12:57.942Z,42.40
2022-07-30T10:15:29.538Z,40.07
2022-07-30T10:17:58.081Z,41.67
2022-07-30T10:24:06.835Z,40.85
2022-07-30T10:26:35.981Z,40.91
2022-07-30T10:29:04.069Z,42.23
2022-07-30T10:31:47.041Z,42.57
2022-07-30T10:34:23.606Z,42.60
2022-07-30T10:36:58.590Z,41.70
2022-07-30T10:39:34.446Z,42.31
2022-07-30T10:42:17.915Z,41.38
2022-07-30T10:45:01.451Z,40.43
2022-07-30T10:47:34.465Z,40.28
2022-07-30T10:50:10.433Z,38.81
2022-07-30T10:52:53.174Z,38.29
2022-07-30T10:55:37.128Z,39.47
2022-07-30T10:58:08.056Z,38.49
2022-07-30T11:00:38.255Z,38.78
2022-07-30T11:03:18.115Z,38.26
2022-07-30T11:05:48.438Z,37.55
2022-07-30T11:08:36.283Z,35.70
2022-07-30T11:12:02.058Z,37.28
2022-07-30T11:14:15.458Z,36.14
2022-07-30T11:17:02.013Z,37.38
2022-07-30T11:19:53.182Z,38.60
2022-07-30T11:22:27.102Z,37.30
2022-07-30T11:24:55.286Z,35.67
2022-07-30T11:27:41.798Z,36.03
2022-07-30T11:30:34.158Z,36.32
2022-07-30T11:33:33.029Z,36.10
2022-07-30T11:36:12.684Z,35.91
2022-07-30T11:38:55.600Z,36.15
2022-07-30T11:41:24.243Z,35.83
2022-07-30T11:44:25.201Z,36.87
2022-07-30T11:46:54.409Z,35.71
2022-07-30T11:49:22.307Z,34.80
2022-07-30T11:51:50.884Z,33.90
2022-07-30T11:54:18.957Z,33.95
2022-07-30T11:56:50.914Z,33.37
2022-07-30T11:59:18.760Z,35.09
2022-07-30T12:01:51.522Z,35.09
2022-07-30T12:04:20.776Z,34.49
2022-07-30T12:06:50.079Z,34.51
2022-07-30T12:09:27.422Z,33.63
2022-07-30T12:11:55.694Z,34.59
2022-07-30T12:14:23.574Z,35.21
2022-07-30T12:16:52.747Z,35.15
2022-07-30T12:19:22.385Z,34.83
2022-07-30T12:21:53.343Z,34.30
2022-07-30T12:24:26.598Z,33.05
2022-07-30T12:27:05.895Z,33.59
2022-07-30T12:29:35.150Z,32.52
2022-07-30T12:32:03.249Z,31.17
2022-07-30T12:34:33.701Z,31.88
2022-07-30T12:37:09.764Z,31.39
2022-07-30T12:39:37.719Z,30.76
2022-07-30T12:42:05.813Z,31.92
2022-07-30T12:44:41.629Z,30.28
2022-07-30T12:47:21.563Z,30.70
2022-07-30T12:49:53.212Z,30.98
2022-07-30T12:52:28.119Z,31.42
2022-07-30T12:55:02.247Z,32.40
2022-07-30T12:57:50.401Z,31.29
2022-07-30T13:00:18.469Z,30.49
2022-07-30T13:02:46.366Z,30.62
2022-07-30T13:05:15.635Z,30.43
2022-07-30T13:08:01.179Z,31.66
2022-07-30T13:10:31.417Z,31.62
2022-07-30T13:12:59.690Z,32.71
2022-07-30T13:15:27.574Z,33.56
2022-07-30T13:17:55.377Z,31.20
2022-07-30T13:20:24.724Z,29.43
2022-07-30T13:22:52.735Z,29.74
2022-07-30T13:25:20.518Z,29.87
2022-07-30T13:27:48.514Z,30.45
2022-07-30T13:30:16.563Z,30.74
2022-07-30T13:32:44.298Z,30.05
2022-07-30T13:35:12.109Z,30.51
2022-07-30T13:37:41.255Z,30.62
2022-07-30T13:40:10.501Z,30.50
2022-07-30T13:42:38.405Z,30.11
2022-07-30T13:45:07.309Z,31.01
2022-07-30T13:47:35.648Z,30.61
2022-07-30T13:50:03.475Z,29.84
2022-07-30T13:52:31.249Z,26.64
2022-07-30T13:55:00.445Z,22.78
2022-07-30T13:57:28.266Z,22.07
2022-07-30T13:59:56.084Z,21.26
2022-07-30T14:02:23.874Z,21.00
2022-07-30T14:04:52.411Z,21.04
2022-07-30T14:07:20.416Z,20.47
2022-07-30T14:09:52.676Z,21.30
2022-07-30T14:12:25.457Z,22.87
2022-07-30T14:14:53.292Z,25.13
2022-07-30T14:17:21.107Z,25.62
2022-07-30T14:19:50.224Z,28.39
2022-07-30T14:22:20.410Z,28.21
2022-07-30T14:24:48.642Z,27.49
2022-07-30T14:27:18.300Z,23.41
2022-07-30T14:29:47.867Z,23.61
2022-07-30T14:32:15.663Z,24.23
2022-07-30T14:34:49.114Z,26.07
2022-07-30T14:37:17.653Z,25.95
2022-07-30T14:39:45.473Z,25.78
2022-07-30T14:42:13.309Z,24.97
2022-07-30T14:44:41.270Z,25.68
2022-07-30T14:47:10.710Z,26.19
2022-07-30T14:49:38.599Z,25.15
2022-07-30T14:52:06.850Z,23.21
2022-07-30T14:54:34.725Z,22.21
2022-07-30T14:57:02.904Z,23.97
2022-07-30T14:59:30.930Z,23.21
2022-07-30T15:01:58.792Z,24.16
2022-07-30T15:04:28.036Z,22.66
2022-07-30T15:06:55.883Z,20.76
2022-07-30T15:09:23.708Z,21.14
2022-07-30T15:12:09.309Z,20.54
2022-07-30T15:14:38.671Z,20.24
2022-07-30T15:17:08.008Z,20.61
2022-07-30T15:19:37.182Z,20.79
2022-07-30T15:22:14.138Z,20.63
2022-07-30T15:24:42.051Z,19.01
2022-07-30T15:27:09.874Z,17.86
2022-07-30T15:29:37.773Z,17.99
2022-07-30T15:32:06.189Z,16.50
2022-07-30T15:34:34.991Z,15.63
2022-07-30T15:37:05.405Z,18.31
2022-07-30T15:39:33.738Z,18.84
2022-07-30T15:42:02.215Z,20.10
2022-07-30T15:44:30.432Z,19.72
2022-07-30T15:46:58.444Z,21.16
2022-07-30T15:49:26.796Z,23.13
2022-07-30T15:51:55.018Z,24.83
2022-07-30T15:54:26.627Z,22.57
2022-07-30T15:57:00.808Z,18.74
2022-07-30T15:59:30.179Z,19.62
2022-07-30T16:01:58.313Z,19.83
2022-07-30T16:04:31.975Z,20.14
2022-07-30T16:07:00.964Z,20.58
2022-07-30T16:09:30.564Z,21.59
2022-07-30T16:11:58.758Z,21.77
2022-07-30T16:14:27.024Z,23.99
2022-07-30T16:16:54.855Z,26.67
2022-07-30T16:19:23.127Z,27.24
2022-07-30T16:21:51.017Z,28.22
2022-07-30T16:24:18.815Z,28.76
2022-07-30T16:26:47.973Z,29.77
2022-07-30T16:29:15.762Z,30.06
2022-07-30T16:31:43.819Z,29.66
2022-07-30T16:34:11.867Z,29.29
2022-07-30T16:36:39.866Z,29.75
2022-07-30T16:39:08.030Z,29.62
2022-07-30T16:41:36.328Z,29.23
2022-07-30T16:44:05.913Z,29.82
2022-07-30T16:46:33.733Z,29.81
2022-07-30T16:49:01.573Z,29.64
2022-07-30T16:51:29.369Z,30.20
2022-07-30T16:53:57.180Z,31.04
2022-07-30T16:56:25.174Z,30.34
2022-07-30T16:58:53.104Z,30.42
2022-07-30T17:01:22.246Z,30.41
2022-07-30T17:03:50.401Z,30.95
2022-07-30T17:06:18.266Z,30.92
2022-07-30T17:08:46.018Z,31.11
2022-07-30T17:11:47.692Z,31.47
2022-07-30T17:14:04.389Z,31.06
2022-07-30T17:16:33.834Z,31.08
2022-07-30T17:19:09.307Z,31.04
2022-07-30T17:21:38.018Z,31.21
2022-07-30T17:24:11.039Z,31.50
2022-07-30T17:26:40.296Z,30.43
2022-07-30T17:29:13.469Z,30.29
2022-07-30T17:31:44.223Z,30.10
2022-07-30T17:34:14.186Z,30.49
2022-07-30T17:36:47.021Z,30.50
2022-07-30T17:40:26.708Z,30.05
2022-07-30T17:42:10.341Z,30.16
2022-07-30T17:44:39.266Z,29.34
2022-07-30T17:47:14.009Z,29.88
2022-07-30T17:49:43.120Z,29.93
2022-07-30T17:52:11.454Z,29.34
2022-07-30T17:54:39.318Z,30.26
2022-07-30T17:57:07.195Z,30.73
2022-07-30T17:59:35.085Z,30.97
2022-07-30T18:02:04.296Z,31.14
2022-07-30T18:04:34.955Z,32.00
2022-07-30T18:07:03.434Z,32.05
2022-07-30T18:09:39.514Z,32.76
2022-07-30T18:12:09.330Z,33.11
2022-07-30T18:14:37.298Z,32.92
2022-07-30T18:17:05.257Z,33.58
2022-07-30T18:19:34.480Z,33.84
2022-07-30T18:22:03.159Z,33.89
2022-07-30T18:24:44.397Z,33.92
2022-07-30T18:27:13.188Z,34.45
2022-07-30T18:29:41.054Z,34.71
2022-07-30T18:32:09.581Z,35.46
2022-07-30T18:34:38.740Z,35.15
2022-07-30T18:37:06.633Z,35.42
2022-07-30T18:39:34.457Z,35.47
2022-07-30T18:42:03.475Z,35.69
2022-07-30T18:44:32.365Z,36.08
2022-07-30T18:47:00.505Z,36.55
2022-07-30T18:49:37.463Z,36.70
2022-07-30T18:52:08.255Z,37.20
2022-07-30T18:54:37.294Z,37.94
2022-07-30T18:57:05.797Z,38.23
2022-07-30T18:59:33.787Z,37.93
2022-07-30T19:02:02.252Z,38.45
2022-07-30T19:04:31.279Z,39.17
2022-07-30T19:06:59.081Z,38.60
2022-07-30T19:09:28.319Z,38.82
2022-07-30T19:11:56.056Z,38.73
2022-07-30T19:14:23.864Z,39.22
2022-07-30T19:16:54.759Z,39.34
2022-07-30T19:19:27.817Z,39.16
2022-07-30T19:21:55.949Z,39.67
2022-07-30T19:24:23.814Z,39.95
2022-07-30T19:26:57.019Z,40.85
2022-07-30T19:29:24.907Z,41.53
2022-07-30T19:31:52.732Z,41.58
2022-07-30T19:34:20.511Z,42.43
2022-07-30T19:36:48.323Z,42.23
2022-07-30T19:39:21.615Z,42.39
2022-07-30T19:41:51.088Z,42.31
2022-07-30T19:44:20.438Z,42.84
2022-07-30T19:46:51.614Z,43.06
2022-07-30T19:49:20.129Z,43.46
2022-07-30T19:52:17.757Z,43.69
2022-07-30T19:54:37.879Z,44.02
2022-07-30T19:57:05.788Z,44.91
2022-07-30T19:59:46.299Z,45.25
2022-07-30T20:02:23.363Z,45.22
2022-07-30T20:04:51.518Z,44.89
2022-07-30T20:07:19.351Z,44.51
2022-07-30T20:09:48.599Z,45.08
2022-07-30T20:12:17.242Z,45.48
2022-07-30T20:14:46.361Z,45.29
2022-07-30T20:17:14.581Z,45.26
2022-07-30T20:19:47.949Z,45.18
2022-07-30T20:22:17.041Z,45.23
2022-07-30T20:24:45.116Z,45.54
2022-07-30T20:27:37.252Z,45.16
2022-07-30T20:30:02.342Z,45.52
2022-07-30T20:32:30.149Z,45.74
2022-07-30T20:34:58.310Z,46.03
2022-07-30T20:37:27.377Z,46.11
2022-07-30T20:39:55.951Z,46.90
2022-07-30T20:42:24.209Z,47.51
2022-07-30T20:44:56.712Z,47.88
2022-07-30T20:47:38.330Z,48.00
2022-07-30T20:50:09.576Z,48.50
2022-07-30T20:52:39.339Z,48.34
2022-07-30T20:55:08.417Z,46.24
2022-07-30T20:57:57.301Z,46.26
2022-07-30T21:00:25.425Z,46.87
2022-07-30T21:02:54.636Z,46.27
2022-07-30T21:05:22.485Z,46.34
2022-07-30T21:07:56.349Z,46.09
2022-07-30T21:10:26.141Z,46.12
2022-07-30T21:12:58.404Z,46.39
2022-07-30T21:15:26.810Z,45.91
2022-07-30T21:18:01.975Z,46.43
2022-07-30T21:20:31.239Z,46.24
2022-07-30T21:23:04.600Z,47.02
2022-07-30T21:25:33.470Z,46.21
2022-07-30T21:28:02.737Z,46.36
2022-07-30T21:30:32.742Z,46.02
2022-07-30T21:33:02.118Z,46.67
2022-07-30T21:35:32.122Z,47.08
2022-07-30T21:38:00.405Z,47.01
2022-07-30T21:40:28.892Z,47.94
2022-07-30T21:42:57.254Z,47.87
2022-07-30T21:45:27.025Z,47.59
2022-07-30T21:48:09.349Z,48.24
2022-07-30T21:50:39.877Z,48.68
2022-07-30T21:53:08.615Z,49.27
2022-07-30T21:55:52.984Z,49.48
2022-07-30T21:58:25.859Z,48.96
2022-07-30T22:01:14.980Z,49.43
2022-07-30T22:04:02.955Z,49.04
2022-07-30T22:06:33.548Z,49.70
2022-07-30T22:09:03.452Z,49.50
2022-07-30T22:11:42.613Z,49.83
2022-07-30T22:14:13.251Z,50.03
2022-07-30T22:16:46.270Z,50.02
2022-07-30T22:19:16.291Z,50.41
2022-07-30T22:21:46.456Z,49.98
2022-07-30T22:24:29.114Z,50.49
2022-07-30T22:27:01.695Z,50.87
2022-07-30T22:29:41.555Z,50.73
2022-07-30T22:32:10.778Z,51.80
2022-07-30T22:34:40.132Z,52.74
2022-07-30T22:37:09.194Z,52.33
2022-07-30T22:39:51.515Z,52.94
2022-07-30T22:42:20.925Z,53.27
2022-07-30T22:44:52.851Z,54.05
2022-07-30T22:47:51.086Z,54.41
2022-07-30T22:50:11.625Z,54.56
2022-07-30T22:52:40.200Z,54.37
2022-07-30T22:55:22.293Z,54.07
2022-07-30T22:57:50.922Z,54.33
2022-07-30T23:00:27.087Z,54.82
2022-07-30T23:02:55.568Z,53.42
2022-07-30T23:05:26.250Z,55.20
2022-07-30T23:07:54.144Z,54.64
2022-07-30T23:10:22.958Z,54.19
2022-07-30T23:12:53.569Z,54.81
2022-07-30T23:15:22.347Z,54.83
2022-07-30T23:17:50.235Z,54.74
2022-07-30T23:20:21.234Z,55.44
2022-07-30T23:22:50.906Z,54.87
2022-07-30T23:25:19.127Z,56.36
2022-07-30T23:27:47.440Z,56.32
2022-07-30T23:30:16.787Z,54.55
2022-07-30T23:32:44.879Z,54.75
2022-07-30T23:35:12.683Z,54.94
2022-07-30T23:37:48.238Z,54.73
2022-07-30T23:40:19.290Z,54.71
2022-07-30T23:42:47.288Z,55.37
2022-07-30T23:45:15.460Z,54.93
2022-07-30T23:48:00.763Z,55.29
2022-07-30T23:50:30.214Z,55.08
2022-07-30T23:52:58.110Z,56.05
2022-07-30T23:55:27.830Z,56.31
2022-07-30T23:57:55.850Z,56.16
